Time;durP1;ratioP1;P1;durP2;ratioP2;P2;SDS_P1;SDS_P2;PMS_P1;PMS_P2;Temp;Humidity;BMP_temperature;BMP_pressure;BME280_temperature;BME280_humidity;BME280_pressure;Samples;Min_cycle;Max_cycle;Signal;HPM_P1;HPM_P2
2022/07/20 00:00:47;;;;;;;;;;;28.40;67.80;;;;;;5094157;28;19924;-61
2022/07/20 00:03:13;;;;;;;;;;;28.00;67.60;;;;;;5094545;28;20356;-62
2022/07/20 00:05:39;;;;;;;;;;;28.40;67.80;;;;;;5094161;28;20010;-61
2022/07/20 00:08:04;;;;;;;;;;;28.40;67.90;;;;;;5094331;28;19924;-61
2022/07/20 00:13:15;;;;;;;;;;;28.30;66.80;;;;;;5092329;28;19920;-62
2022/07/20 00:15:40;;;;;;;;;;;28.10;67.60;;;;;;5094076;28;19942;-63
2022/07/20 00:18:06;;;;;;;;;;;28.40;67.80;;;;;;5094740;28;19926;-61
2022/07/20 00:20:32;;;;;;;;;;;28.30;67.60;;;;;;5076349;28;19977;-62
2022/07/20 00:22:58;;;;;;;;;;;28.20;67.50;;;;;;5093434;28;20335;-62
2022/07/20 00:25:24;;;;;;;;;;;28.30;67.80;;;;;;5093922;28;19924;-61
2022/07/20 00:27:49;;;;;;;;;;;28.10;67.50;;;;;;5093462;28;19927;-61
2022/07/20 00:30:15;;;;;;;;;;;28.40;68.00;;;;;;5093795;28;19981;-62
2022/07/20 00:32:42;;;;;;;;;;;28.30;67.50;;;;;;5093709;28;19920;-63
2022/07/20 00:35:08;;;;;;;;;;;28.20;67.60;;;;;;5076131;28;19920;-62
2022/07/20 00:37:34;;;;;;;;;;;28.00;67.20;;;;;;5093439;28;19981;-62
2022/07/20 00:39:59;;;;;;;;;;;28.50;67.80;;;;;;5093525;28;19920;-62
2022/07/20 00:42:25;;;;;;;;;;;28.30;68.10;;;;;;5093774;28;19920;-61
2022/07/20 00:44:51;;;;;;;;;;;28.40;67.90;;;;;;5094026;28;19923;-61
2022/07/20 00:47:16;;;;;;;;;;;28.30;67.60;;;;;;5093550;28;19920;-62
2022/07/20 00:49:42;;;;;;;;;;;28.40;67.70;;;;;;5093311;28;20418;-62
2022/07/20 00:52:08;;;;;;;;;;;28.40;67.50;;;;;;5093418;28;19927;-61
2022/07/20 00:54:33;;;;;;;;;;;27.90;67.10;;;;;;5093663;28;19973;-62
2022/07/20 00:56:59;;;;;;;;;;;28.50;67.50;;;;;;5075880;28;19920;-61
2022/07/20 00:59:25;;;;;;;;;;;28.30;67.90;;;;;;5093404;28;20033;-62
2022/07/20 01:01:50;;;;;;;;;;;28.10;67.50;;;;;;5093938;28;19927;-62
2022/07/20 01:04:16;;;;;;;;;;;28.20;67.60;;;;;;5092827;28;19927;-62
2022/07/20 01:06:41;;;;;;;;;;;28.20;67.70;;;;;;5093725;28;19974;-61
2022/07/20 01:09:07;;;;;;;;;;;28.20;67.80;;;;;;5075116;28;20441;-62
2022/07/20 01:11:33;;;;;;;;;;;28.10;67.60;;;;;;5093588;28;19924;-61
2022/07/20 01:14:05;;;;;;;;;;;28.30;67.90;;;;;;5076225;28;19920;-62
2022/07/20 01:16:31;;;;;;;;;;;28.10;66.30;;;;;;5083457;28;19972;-62
2022/07/20 01:18:57;;;;;;;;;;;28.00;67.50;;;;;;5096913;28;19924;-62
2022/07/20 01:21:23;;;;;;;;;;;28.00;67.40;;;;;;5096834;28;19920;-61
2022/07/20 01:23:48;;;;;;;;;;;28.00;67.50;;;;;;5097605;28;19916;-62
2022/07/20 01:26:17;;;;;;;;;;;27.90;67.40;;;;;;5096674;28;20277;-61
2022/07/20 01:28:43;;;;;;;;;;;28.10;66.40;;;;;;5097056;28;19927;-63
2022/07/20 01:31:08;;;;;;;;;;;28.00;67.30;;;;;;5096991;28;20377;-62
2022/07/20 01:33:34;;;;;;;;;;;28.10;67.50;;;;;;5097283;28;19927;-61
2022/07/20 01:36:00;;;;;;;;;;;28.10;67.60;;;;;;5078283;28;20439;-62
2022/07/20 01:38:25;;;;;;;;;;;28.20;67.70;;;;;;5078893;28;20022;-62
2022/07/20 01:40:51;;;;;;;;;;;28.00;67.60;;;;;;5096183;28;20286;-62
2022/07/20 01:43:16;;;;;;;;;;;28.20;67.70;;;;;;5096934;28;19920;-63
2022/07/20 01:45:42;;;;;;;;;;;28.10;67.70;;;;;;5096661;28;20354;-62
2022/07/20 01:48:08;;;;;;;;;;;28.20;67.80;;;;;;5096839;28;20377;-63
2022/07/20 01:50:33;;;;;;;;;;;28.10;67.60;;;;;;5096971;28;19920;-62
2022/07/20 01:52:59;;;;;;;;;;;28.20;67.80;;;;;;5095865;28;20403;-62
2022/07/20 01:55:25;;;;;;;;;;;28.10;67.70;;;;;;5096461;28;19920;-61
2022/07/20 01:57:50;;;;;;;;;;;28.30;67.70;;;;;;5096862;28;19920;-61
2022/07/20 02:00:16;;;;;;;;;;;28.20;67.80;;;;;;5096163;28;19919;-62
2022/07/20 02:02:41;;;;;;;;;;;28.00;67.30;;;;;;5096134;28;19970;-62
2022/07/20 02:05:08;;;;;;;;;;;28.00;67.70;;;;;;5096744;28;19927;-63
2022/07/20 02:07:34;;;;;;;;;;;28.10;67.60;;;;;;5096239;28;20276;-62
2022/07/20 02:09:59;;;;;;;;;;;28.10;67.70;;;;;;5078074;28;19926;-61
2022/07/20 02:12:25;;;;;;;;;;;28.20;67.70;;;;;;5095908;28;20015;-62
2022/07/20 02:14:50;;;;;;;;;;;27.90;67.50;;;;;;5078239;28;19965;-62
2022/07/20 02:17:16;;;;;;;;;;;28.10;67.50;;;;;;5096120;28;19965;-62
2022/07/20 02:19:42;;;;;;;;;;;28.10;67.50;;;;;;5096217;28;19966;-62
2022/07/20 02:22:07;;;;;;;;;;;27.90;67.20;;;;;;5096381;28;19920;-62
2022/07/20 02:24:33;;;;;;;;;;;27.80;67.30;;;;;;5095544;28;19920;-62
2022/07/20 02:26:58;;;;;;;;;;;28.10;67.50;;;;;;5093847;28;19924;-61
2022/07/20 02:29:24;;;;;;;;;;;28.10;67.60;;;;;;5095660;28;19928;-61
2022/07/20 02:31:49;;;;;;;;;;;27.90;67.20;;;;;;5096344;28;19923;-62
2022/07/20 02:34:15;;;;;;;;;;;28.10;67.50;;;;;;5095630;28;19963;-62
2022/07/20 02:36:40;;;;;;;;;;;27.80;67.20;;;;;;5095907;28;19919;-61
2022/07/20 02:39:07;;;;;;;;;;;28.00;67.60;;;;;;5095496;28;20008;-62
2022/07/20 02:41:34;;;;;;;;;;;27.90;67.40;;;;;;5096018;28;20011;-61
2022/07/20 02:44:00;;;;;;;;;;;28.00;67.50;;;;;;5093600;28;19972;-61
2022/07/20 02:46:26;;;;;;;;;;;28.00;67.70;;;;;;5095574;28;20006;-62
2022/07/20 02:48:51;;;;;;;;;;;27.80;67.40;;;;;;5096005;28;19927;-62
2022/07/20 02:51:17;;;;;;;;;;;28.10;67.50;;;;;;5094802;28;19999;-61
2022/07/20 02:53:42;;;;;;;;;;;27.70;67.30;;;;;;5095871;28;19920;-62
2022/07/20 02:56:08;;;;;;;;;;;27.80;67.20;;;;;;5094907;28;19924;-62
2022/07/20 02:58:34;;;;;;;;;;;28.00;67.60;;;;;;5077702;28;19920;-61
2022/07/20 03:00:59;;;;;;;;;;;27.90;67.30;;;;;;5095655;28;20385;-62
2022/07/20 03:03:25;;;;;;;;;;;28.00;67.40;;;;;;5095374;28;20267;-62
2022/07/20 03:05:51;;;;;;;;;;;27.80;67.50;;;;;;5094951;28;19927;-62
2022/07/20 03:08:17;;;;;;;;;;;27.80;67.40;;;;;;5094266;28;19920;-62
2022/07/20 03:10:42;;;;;;;;;;;27.70;67.40;;;;;;5076524;28;19927;-61
2022/07/20 03:13:08;;;;;;;;;;;27.70;67.30;;;;;;5077493;28;19927;-62
2022/07/20 03:15:33;;;;;;;;;;;28.00;68.30;;;;;;5095338;28;19916;-61
2022/07/20 03:17:59;;;;;;;;;;;27.90;67.50;;;;;;5094797;28;19927;-62
2022/07/20 03:20:26;;;;;;;;;;;27.60;67.30;;;;;;5095372;28;19920;-61
2022/07/20 03:22:51;;;;;;;;;;;27.60;67.50;;;;;;5095280;28;19930;-61
2022/07/20 03:25:17;;;;;;;;;;;27.40;67.10;;;;;;5095088;28;19920;-61
2022/07/20 03:27:43;;;;;;;;;;;27.60;67.20;;;;;;5089347;28;19920;-61
2022/07/20 03:30:09;;;;;;;;;;;27.50;67.20;;;;;;5094798;28;19963;-62
2022/07/20 03:32:34;;;;;;;;;;;27.70;67.00;;;;;;5094628;28;19955;-61
2022/07/20 03:35:00;;;;;;;;;;;27.70;67.30;;;;;;5095103;28;19927;-61
2022/07/20 03:37:25;;;;;;;;;;;27.60;67.20;;;;;;5093884;28;19926;-61
2022/07/20 03:39:51;;;;;;;;;;;27.80;67.40;;;;;;5076786;28;20026;-62
2022/07/20 03:42:17;;;;;;;;;;;27.80;67.80;;;;;;5092938;28;19924;-61
2022/07/20 03:44:42;;;;;;;;;;;28.10;67.60;;;;;;5078647;28;20007;-62
2022/07/20 03:47:08;;;;;;;;;;;27.70;67.40;;;;;;5074500;28;19973;-62
2022/07/20 03:49:33;;;;;;;;;;;27.80;67.50;;;;;;5090053;28;19920;-62
2022/07/20 03:51:59;;;;;;;;;;;27.80;67.50;;;;;;5094785;28;19920;-61
2022/07/20 03:54:24;;;;;;;;;;;27.70;67.70;;;;;;5093974;28;19920;-61
2022/07/20 03:56:50;;;;;;;;;;;27.80;67.70;;;;;;5093302;28;19920;-62
2022/07/20 03:59:16;;;;;;;;;;;27.70;67.80;;;;;;5088896;28;20001;-64
2022/07/20 04:01:42;;;;;;;;;;;27.60;67.60;;;;;;5074452;28;20384;-62
2022/07/20 04:04:07;;;;;;;;;;;27.60;67.80;;;;;;5077750;28;19965;-61
2022/07/20 04:06:33;;;;;;;;;;;28.00;68.10;;;;;;5094279;28;19919;-61
2022/07/20 04:08:58;;;;;;;;;;;27.70;68.00;;;;;;5093216;28;20389;-68
2022/07/20 04:11:24;;;;;;;;;;;27.70;67.70;;;;;;5093799;28;19927;-62
2022/07/20 04:13:50;;;;;;;;;;;27.90;68.20;;;;;;5094141;28;20014;-61
2022/07/20 04:16:15;;;;;;;;;;;28.00;68.00;;;;;;5093387;28;19967;-61
2022/07/20 04:18:41;;;;;;;;;;;28.10;68.80;;;;;;5094105;28;19924;-61
2022/07/20 04:21:07;;;;;;;;;;;27.90;67.70;;;;;;5093390;28;20003;-61
2022/07/20 04:23:32;;;;;;;;;;;28.10;67.80;;;;;;5093883;28;19926;-61
2022/07/20 04:25:58;;;;;;;;;;;27.80;67.50;;;;;;5075606;28;20369;-63
2022/07/20 04:28:23;;;;;;;;;;;28.00;67.60;;;;;;5093061;28;19920;-62
2022/07/20 04:30:49;;;;;;;;;;;28.00;67.20;;;;;;5093224;28;19931;-61
2022/07/20 04:33:15;;;;;;;;;;;28.00;67.40;;;;;;5094216;28;20018;-61
2022/07/20 04:35:40;;;;;;;;;;;27.90;67.30;;;;;;5092665;28;20003;-63
2022/07/20 04:38:06;;;;;;;;;;;27.90;67.30;;;;;;5093574;28;19927;-61
2022/07/20 04:40:31;;;;;;;;;;;28.10;67.50;;;;;;5092987;28;19923;-61
2022/07/20 04:42:57;;;;;;;;;;;28.00;67.20;;;;;;5094078;28;20058;-62
2022/07/20 04:45:23;;;;;;;;;;;28.20;67.70;;;;;;5093200;28;19927;-65
2022/07/20 04:47:48;;;;;;;;;;;28.10;67.60;;;;;;5093467;28;20016;-62
2022/07/20 04:50:14;;;;;;;;;;;28.20;67.70;;;;;;5095146;28;19920;-61
2022/07/20 04:52:39;;;;;;;;;;;28.10;67.50;;;;;;5097438;28;19953;-62
2022/07/20 04:55:05;;;;;;;;;;;28.30;67.70;;;;;;5096591;28;19920;-61
2022/07/20 04:57:31;;;;;;;;;;;28.10;67.30;;;;;;5078981;28;19928;-61
2022/07/20 04:59:57;;;;;;;;;;;28.10;67.40;;;;;;5097650;28;19926;-61
2022/07/20 05:02:23;;;;;;;;;;;28.00;67.50;;;;;;5079217;28;19926;-62
2022/07/20 05:04:48;;;;;;;;;;;28.10;67.50;;;;;;5097362;28;20347;-62
2022/07/20 05:07:14;;;;;;;;;;;28.40;67.60;;;;;;5097773;28;19998;-61
2022/07/20 05:09:40;;;;;;;;;;;28.10;67.50;;;;;;5096991;28;19927;-61
2022/07/20 05:12:06;;;;;;;;;;;28.50;67.60;;;;;;5097227;28;19920;-61
2022/07/20 05:14:31;;;;;;;;;;;28.60;67.10;;;;;;5097756;28;19931;-62
2022/07/20 05:16:57;;;;;;;;;;;29.00;66.90;;;;;;5097443;28;20005;-66
2022/07/20 05:19:22;;;;;;;;;;;28.80;66.50;;;;;;5078737;28;19927;-61
2022/07/20 05:21:48;;;;;;;;;;;28.90;66.20;;;;;;5097670;28;20278;-61
2022/07/20 05:24:14;;;;;;;;;;;29.10;66.10;;;;;;5096890;28;20432;-62
2022/07/20 05:26:39;;;;;;;;;;;29.30;65.90;;;;;;5096994;28;20014;-61
2022/07/20 05:29:05;;;;;;;;;;;29.30;65.60;;;;;;5096726;28;20007;-62
2022/07/20 05:31:30;;;;;;;;;;;29.40;65.20;;;;;;5096920;28;19920;-61
2022/07/20 05:33:56;;;;;;;;;;;29.60;65.30;;;;;;5096791;28;19920;-63
2022/07/20 05:36:22;;;;;;;;;;;29.60;65.00;;;;;;5097348;28;20014;-61
2022/07/20 05:38:47;;;;;;;;;;;29.70;65.00;;;;;;5097353;28;20047;-61
2022/07/20 05:41:13;;;;;;;;;;;29.90;64.90;;;;;;5097142;28;19920;-62
2022/07/20 05:43:39;;;;;;;;;;;30.10;65.00;;;;;;5097242;28;20358;-62
2022/07/20 05:46:04;;;;;;;;;;;29.80;64.50;;;;;;5096144;28;19965;-61
2022/07/20 05:48:30;;;;;;;;;;;30.10;64.20;;;;;;5097013;28;19931;-64
2022/07/20 05:50:56;;;;;;;;;;;30.00;64.30;;;;;;5096395;28;19924;-62
2022/07/20 05:53:21;;;;;;;;;;;30.30;64.40;;;;;;5097122;28;19976;-62
2022/07/20 05:55:47;;;;;;;;;;;30.40;64.00;;;;;;5078198;28;20381;-62
2022/07/20 05:58:13;;;;;;;;;;;30.50;63.90;;;;;;5096204;28;19920;-61
2022/07/20 06:00:38;;;;;;;;;;;30.50;63.90;;;;;;5096483;28;19927;-62
2022/07/20 06:03:04;;;;;;;;;;;30.50;63.40;;;;;;5078773;28;20003;-67
2022/07/20 06:05:30;;;;;;;;;;;30.30;63.30;;;;;;5096032;28;19974;-66
2022/07/20 06:07:56;;;;;;;;;;;30.40;63.10;;;;;;5096065;28;19927;-71
2022/07/20 06:10:22;;;;;;;;;;;30.50;63.20;;;;;;5096435;28;20018;-64
2022/07/20 06:12:48;;;;;;;;;;;30.40;63.00;;;;;;5094779;28;19919;-70
2022/07/20 06:15:13;;;;;;;;;;;30.30;62.70;;;;;;5096163;28;19935;-62
2022/07/20 06:17:39;;;;;;;;;;;30.40;62.40;;;;;;5077427;28;20301;-65
2022/07/20 06:20:05;;;;;;;;;;;30.50;62.60;;;;;;5096332;28;19920;-66
2022/07/20 06:22:31;;;;;;;;;;;30.30;62.00;;;;;;5095612;28;19969;-65
2022/07/20 06:24:57;;;;;;;;;;;30.60;62.30;;;;;;5096288;28;19923;-64
2022/07/20 06:27:23;;;;;;;;;;;30.10;61.90;;;;;;5087594;28;19927;-62
2022/07/20 06:29:48;;;;;;;;;;;30.40;62.80;;;;;;5077832;28;20278;-63
2022/07/20 06:32:14;;;;;;;;;;;30.50;62.20;;;;;;5096000;28;19920;-62
2022/07/20 06:34:39;;;;;;;;;;;30.30;61.90;;;;;;5095884;28;19920;-62
2022/07/20 06:37:05;;;;;;;;;;;30.50;61.80;;;;;;5095670;28;19999;-62
2022/07/20 06:39:31;;;;;;;;;;;30.50;61.30;;;;;;5094393;28;19935;-62
2022/07/20 06:41:57;;;;;;;;;;;30.50;60.90;;;;;;5095338;28;19920;-62
2022/07/20 06:44:22;;;;;;;;;;;30.40;61.50;;;;;;5093214;28;19951;-61
2022/07/20 06:46:48;;;;;;;;;;;30.30;61.50;;;;;;5095918;28;20016;-62
2022/07/20 06:49:14;;;;;;;;;;;30.10;61.20;;;;;;5095563;28;20011;-62
2022/07/20 06:51:40;;;;;;;;;;;30.10;61.50;;;;;;5095244;28;19927;-62
2022/07/20 06:54:05;;;;;;;;;;;30.40;61.80;;;;;;5094987;28;20293;-62
2022/07/20 06:56:31;;;;;;;;;;;30.50;62.10;;;;;;5095358;28;19923;-61
2022/07/20 06:58:57;;;;;;;;;;;30.20;61.80;;;;;;5094546;28;19920;-62
2022/07/20 07:01:23;;;;;;;;;;;30.50;61.70;;;;;;5095507;28;20006;-62
2022/07/20 07:03:48;;;;;;;;;;;30.30;61.70;;;;;;5095062;28;20470;-62
2022/07/20 07:06:14;;;;;;;;;;;30.30;61.70;;;;;;5094028;28;19970;-63
2022/07/20 07:08:39;;;;;;;;;;;30.50;62.00;;;;;;5095625;28;19927;-74
2022/07/20 07:11:05;;;;;;;;;;;30.40;61.90;;;;;;5095567;28;19920;-62
2022/07/20 07:13:30;;;;;;;;;;;30.50;62.30;;;;;;5092587;28;19945;-62
2022/07/20 07:15:56;;;;;;;;;;;30.20;62.30;;;;;;5094717;28;19927;-62
2022/07/20 07:18:22;;;;;;;;;;;30.30;62.00;;;;;;5095455;28;20002;-62
2022/07/20 07:20:47;;;;;;;;;;;30.50;62.30;;;;;;5094731;28;19965;-61
2022/07/20 07:23:13;;;;;;;;;;;30.80;62.30;;;;;;5095342;28;19924;-62
2022/07/20 07:25:39;;;;;;;;;;;30.70;62.20;;;;;;5094787;28;20010;-62
2022/07/20 07:28:05;;;;;;;;;;;30.70;61.60;;;;;;5094161;28;19934;-64
2022/07/20 07:30:33;;;;;;;;;;;30.90;61.70;;;;;;5094694;28;20301;-64
2022/07/20 07:32:58;;;;;;;;;;;31.00;62.20;;;;;;5094851;28;20432;-64
2022/07/20 07:35:24;;;;;;;;;;;31.00;62.10;;;;;;5093498;28;19920;-63
2022/07/20 07:37:49;;;;;;;;;;;31.10;62.10;;;;;;5093937;28;19977;-61
2022/07/20 07:40:15;;;;;;;;;;;31.20;62.10;;;;;;5091127;28;19920;-62
2022/07/20 07:42:41;;;;;;;;;;;31.30;62.00;;;;;;5088271;28;19924;-62
2022/07/20 07:45:07;;;;;;;;;;;31.50;62.30;;;;;;5094607;28;19927;-61
2022/07/20 07:47:33;;;;;;;;;;;31.30;61.60;;;;;;5094172;28;19927;-62
2022/07/20 07:49:59;;;;;;;;;;;31.50;62.10;;;;;;5094885;28;19920;-61
2022/07/20 07:52:24;;;;;;;;;;;31.60;62.60;;;;;;5094531;28;19919;-61
2022/07/20 07:54:50;;;;;;;;;;;31.70;62.30;;;;;;5094990;28;19920;-62
2022/07/20 07:57:16;;;;;;;;;;;31.60;61.90;;;;;;5095031;28;19920;-64
2022/07/20 07:59:42;;;;;;;;;;;31.70;62.00;;;;;;5093979;28;20297;-62
2022/07/20 08:02:08;;;;;;;;;;;31.50;61.80;;;;;;5095188;28;19920;-61
2022/07/20 08:04:33;;;;;;;;;;;31.80;62.20;;;;;;5094337;28;19920;-62
2022/07/20 08:07:00;;;;;;;;;;;31.60;61.80;;;;;;5094645;28;19974;-61
2022/07/20 08:09:26;;;;;;;;;;;31.90;61.40;;;;;;5093775;28;19927;-62
2022/07/20 08:11:52;;;;;;;;;;;31.90;61.70;;;;;;5094020;28;19919;-61
2022/07/20 08:14:17;;;;;;;;;;;31.70;61.70;;;;;;5094093;28;19971;-62
2022/07/20 08:16:45;;;;;;;;;;;31.70;61.50;;;;;;5076387;28;19924;-62
2022/07/20 08:19:13;;;;;;;;;;;32.00;60.70;;;;;;5093903;28;19999;-62
2022/07/20 08:21:38;;;;;;;;;;;32.10;61.70;;;;;;5094171;28;20337;-62
2022/07/20 08:24:04;;;;;;;;;;;32.00;61.80;;;;;;5093285;28;19920;-63
2022/07/20 08:26:30;;;;;;;;;;;31.90;61.40;;;;;;5093734;28;20005;-61
2022/07/20 08:28:56;;;;;;;;;;;31.90;61.60;;;;;;5093928;28;20373;-62
2022/07/20 08:31:22;;;;;;;;;;;32.10;61.50;;;;;;5094242;28;19923;-61
2022/07/20 08:33:49;;;;;;;;;;;32.00;60.70;;;;;;5093772;28;19920;-61
2022/07/20 08:36:15;;;;;;;;;;;31.90;61.60;;;;;;5093263;28;19961;-62
2022/07/20 08:38:41;;;;;;;;;;;32.30;62.10;;;;;;5093690;28;19963;-61
2022/07/20 08:41:07;;;;;;;;;;;31.80;61.60;;;;;;5073969;28;19958;-63
2022/07/20 08:43:33;;;;;;;;;;;31.70;61.80;;;;;;5089244;28;20014;-64
2022/07/20 08:45:58;;;;;;;;;;;31.90;61.40;;;;;;5089624;28;20045;-64
2022/07/20 08:48:25;;;;;;;;;;;32.10;61.80;;;;;;5094038;28;20280;-63
2022/07/20 08:50:50;;;;;;;;;;;32.20;61.90;;;;;;5075711;28;19949;-64
2022/07/20 08:53:17;;;;;;;;;;;32.30;62.20;;;;;;5094058;28;19998;-61
2022/07/20 08:55:42;;;;;;;;;;;31.80;61.70;;;;;;5075094;28;20012;-68
2022/07/20 08:58:09;;;;;;;;;;;32.20;61.90;;;;;;5075731;28;19977;-61
2022/07/20 09:00:35;;;;;;;;;;;32.30;62.30;;;;;;5093957;28;19927;-63
2022/07/20 09:03:01;;;;;;;;;;;31.90;61.60;;;;;;5093556;28;20281;-62
2022/07/20 09:05:28;;;;;;;;;;;32.20;62.30;;;;;;5093552;28;20019;-61
2022/07/20 09:07:55;;;;;;;;;;;32.40;61.90;;;;;;5092573;28;19927;-61
2022/07/20 09:10:21;;;;;;;;;;;32.10;62.30;;;;;;5092493;28;20010;-62
2022/07/20 09:12:50;;;;;;;;;;;32.10;62.40;;;;;;5091753;28;20006;-62
2022/07/20 09:15:27;;;;;;;;;;;32.30;61.40;;;;;;5084958;28;19965;-62
2022/07/20 09:18:02;;;;;;;;;;;32.30;61.30;;;;;;5090380;28;20006;-62
2022/07/20 09:20:29;;;;;;;;;;;32.50;61.40;;;;;;5090850;28;19943;-61
2022/07/20 09:22:59;;;;;;;;;;;32.40;62.10;;;;;;5074884;28;19920;-61
2022/07/20 09:25:25;;;;;;;;;;;32.50;62.70;;;;;;5093182;28;19927;-61
2022/07/20 09:27:50;;;;;;;;;;;32.40;62.30;;;;;;5091172;28;19919;-63
2022/07/20 09:30:16;;;;;;;;;;;32.40;62.70;;;;;;5071071;28;19921;-62
2022/07/20 09:32:55;;;;;;;;;;;32.20;63.50;;;;;;5073482;28;20294;-61
2022/07/20 09:35:23;;;;;;;;;;;32.10;61.50;;;;;;5073381;28;20308;-61
2022/07/20 09:37:48;;;;;;;;;;;32.30;63.40;;;;;;5075313;28;19933;-61
2022/07/20 09:40:14;;;;;;;;;;;33.00;64.00;;;;;;5075174;28;19928;-62
2022/07/20 09:42:41;;;;;;;;;;;32.70;63.80;;;;;;5058755;28;19949;-61
2022/07/20 09:45:23;;;;;;;;;;;32.50;64.00;;;;;;5074312;28;19920;-61
2022/07/20 09:48:01;;;;;;;;;;;32.40;62.70;;;;;;5076079;28;19920;-61
2022/07/20 09:50:29;;;;;;;;;;;32.60;63.20;;;;;;5076311;28;19920;-62
2022/07/20 09:52:55;;;;;;;;;;;32.50;64.50;;;;;;5076258;28;19965;-61
2022/07/20 09:55:20;;;;;;;;;;;32.40;64.50;;;;;;5076383;28;20007;-69
2022/07/20 09:57:46;;;;;;;;;;;32.40;64.30;;;;;;5073419;28;20484;-62
2022/07/20 10:00:13;;;;;;;;;;;32.70;64.80;;;;;;5071191;28;20392;-61
2022/07/20 10:02:38;;;;;;;;;;;32.50;63.90;;;;;;5076111;28;20007;-62
2022/07/20 10:05:04;;;;;;;;;;;32.50;65.20;;;;;;5075313;28;19968;-68
2022/07/20 10:07:30;;;;;;;;;;;32.60;65.10;;;;;;5058248;28;19963;-62
2022/07/20 10:09:56;;;;;;;;;;;32.60;65.50;;;;;;5073992;28;19970;-62
2022/07/20 10:12:21;;;;;;;;;;;32.50;65.90;;;;;;5075998;28;19938;-62
2022/07/20 10:14:49;;;;;;;;;;;32.50;65.40;;;;;;5073267;28;19926;-62
2022/07/20 10:17:15;;;;;;;;;;;32.70;66.30;;;;;;5072328;28;19928;-65
2022/07/20 10:19:47;;;;;;;;;;;32.60;65.90;;;;;;5071793;28;20666;-62
2022/07/20 10:22:12;;;;;;;;;;;32.60;65.10;;;;;;5073599;28;19927;-63
2022/07/20 10:24:39;;;;;;;;;;;32.50;66.50;;;;;;5074534;28;19920;-63
2022/07/20 10:27:08;;;;;;;;;;;32.20;66.70;;;;;;5074598;28;19924;-62
2022/07/20 10:29:36;;;;;;;;;;;32.30;65.30;;;;;;5082536;28;19920;-62
2022/07/20 10:32:11;;;;;;;;;;;32.30;65.20;;;;;;5094397;28;19930;-62
2022/07/20 10:34:38;;;;;;;;;;;32.20;65.00;;;;;;5072470;28;19919;-61
2022/07/20 10:37:24;;;;;;;;;;;32.40;66.40;;;;;;5096052;28;20309;-62
2022/07/20 10:39:53;;;;;;;;;;;32.00;66.30;;;;;;5095021;28;20266;-63
2022/07/20 10:42:22;;;;;;;;;;;32.50;65.20;;;;;;5096146;28;19942;-61
2022/07/20 10:44:47;;;;;;;;;;;32.50;65.20;;;;;;5093313;28;20300;-62
2022/07/20 10:47:32;;;;;;;;;;;32.20;66.10;;;;;;5095274;28;19920;-61
2022/07/20 10:50:00;;;;;;;;;;;32.40;65.60;;;;;;5095681;28;19965;-62
2022/07/20 10:52:26;;;;;;;;;;;32.20;66.20;;;;;;5093979;28;19920;-62
2022/07/20 10:54:51;;;;;;;;;;;32.30;66.30;;;;;;5094509;28;19924;-70
2022/07/20 10:57:17;;;;;;;;;;;32.10;65.90;;;;;;5074489;28;20385;-63
2022/07/20 10:59:43;;;;;;;;;;;32.40;66.10;;;;;;5077692;28;20047;-63
2022/07/20 11:02:08;;;;;;;;;;;32.10;66.20;;;;;;5094499;28;19920;-63
2022/07/20 11:04:41;;;;;;;;;;;32.10;65.90;;;;;;5076953;28;19916;-63
2022/07/20 11:07:06;;;;;;;;;;;32.20;66.60;;;;;;5094693;28;19920;-63
2022/07/20 11:09:32;;;;;;;;;;;32.40;66.30;;;;;;5095248;28;19920;-66
2022/07/20 11:11:58;;;;;;;;;;;32.10;66.40;;;;;;5094387;28;19927;-62
2022/07/20 11:14:23;;;;;;;;;;;32.20;66.00;;;;;;5095044;28;20385;-62
2022/07/20 11:16:53;;;;;;;;;;;32.20;66.30;;;;;;5088556;28;19929;-62
2022/07/20 11:19:19;;;;;;;;;;;32.30;66.60;;;;;;5057962;28;19966;-62
2022/07/20 11:21:44;;;;;;;;;;;32.00;66.50;;;;;;5059959;28;19959;-62
2022/07/20 11:24:20;;;;;;;;;;;32.00;66.40;;;;;;5095669;28;20362;-63
2022/07/20 11:26:46;;;;;;;;;;;31.90;67.20;;;;;;5094315;28;20010;-61
2022/07/20 11:29:14;;;;;;;;;;;32.10;67.20;;;;;;5094310;28;19919;-61
2022/07/20 11:31:39;;;;;;;;;;;31.80;67.50;;;;;;5094110;28;19920;-62
2022/07/20 11:34:05;;;;;;;;;;;31.60;67.10;;;;;;5094862;28;19927;-62
2022/07/20 11:36:31;;;;;;;;;;;31.80;67.50;;;;;;5076660;28;19924;-61
2022/07/20 11:38:59;;;;;;;;;;;31.80;67.80;;;;;;5092345;28;19920;-61
2022/07/20 11:41:34;;;;;;;;;;;31.90;68.00;;;;;;5076904;28;19942;-61
2022/07/20 11:44:00;;;;;;;;;;;31.70;67.70;;;;;;5077419;28;19920;-62
2022/07/20 11:46:26;;;;;;;;;;;31.80;67.70;;;;;;5076386;28;19927;-61
2022/07/20 11:48:52;;;;;;;;;;;31.90;67.90;;;;;;5075477;28;19943;-62
2022/07/20 11:51:18;;;;;;;;;;;31.80;67.80;;;;;;5093500;28;19920;-61
2022/07/20 11:53:44;;;;;;;;;;;31.90;67.20;;;;;;5094787;28;19927;-61
2022/07/20 11:56:14;;;;;;;;;;;31.90;67.20;;;;;;5093881;28;19927;-61
2022/07/20 11:58:39;;;;;;;;;;;31.70;66.50;;;;;;5093587;28;19920;-65
2022/07/20 12:01:06;;;;;;;;;;;31.80;67.70;;;;;;5092079;28;19965;-62
2022/07/20 12:03:35;;;;;;;;;;;31.70;67.70;;;;;;5089034;28;19967;-62
2022/07/20 12:06:02;;;;;;;;;;;32.20;66.40;;;;;;5076042;28;19923;-61
2022/07/20 12:08:28;;;;;;;;;;;32.00;67.50;;;;;;5092945;28;19977;-63
2022/07/20 12:10:54;;;;;;;;;;;32.00;66.70;;;;;;5090349;28;19924;-66
2022/07/20 12:13:21;;;;;;;;;;;32.20;66.90;;;;;;5076119;28;19920;-62
2022/07/20 12:15:53;;;;;;;;;;;32.00;67.00;;;;;;5090165;28;19920;-62
2022/07/20 12:18:38;;;;;;;;;;;32.00;65.10;;;;;;5094390;28;20334;-61
2022/07/20 12:21:05;;;;;;;;;;;32.10;64.60;;;;;;5074679;28;19920;-67
2022/07/20 12:23:31;;;;;;;;;;;32.30;66.30;;;;;;5093865;28;19988;-63
2022/07/20 12:25:57;;;;;;;;;;;32.30;66.50;;;;;;5094003;28;20018;-66
2022/07/20 12:28:27;;;;;;;;;;;32.10;66.00;;;;;;5094172;28;19999;-62
2022/07/20 12:30:52;;;;;;;;;;;31.90;65.40;;;;;;5088800;28;19920;-64
2022/07/20 12:33:18;;;;;;;;;;;32.00;66.30;;;;;;5073114;28;19943;-63
2022/07/20 12:35:45;;;;;;;;;;;31.90;66.40;;;;;;5073765;28;19927;-63
2022/07/20 12:38:10;;;;;;;;;;;32.20;66.80;;;;;;5073489;28;20485;-62
2022/07/20 12:40:37;;;;;;;;;;;32.10;66.40;;;;;;5073857;28;19962;-62
2022/07/20 12:43:03;;;;;;;;;;;31.80;66.20;;;;;;5071356;28;19920;-63
2022/07/20 12:45:28;;;;;;;;;;;32.00;66.40;;;;;;5072025;28;19920;-65
2022/07/20 12:47:54;;;;;;;;;;;31.90;65.90;;;;;;5073397;28;19966;-62
2022/07/20 12:50:20;;;;;;;;;;;31.80;65.80;;;;;;5073826;28;19974;-61
2022/07/20 12:52:46;;;;;;;;;;;31.90;65.90;;;;;;5071988;28;19935;-70
2022/07/20 12:55:11;;;;;;;;;;;32.00;66.30;;;;;;5071305;28;20317;-62
2022/07/20 12:57:37;;;;;;;;;;;31.80;66.80;;;;;;5072406;28;20370;-62
2022/07/20 13:00:04;;;;;;;;;;;32.30;66.30;;;;;;5055800;28;20441;-66
2022/07/20 13:02:29;;;;;;;;;;;32.00;66.40;;;;;;5053510;28;20310;-63
2022/07/20 13:04:55;;;;;;;;;;;32.30;66.70;;;;;;5067096;28;19920;-62
2022/07/20 13:07:21;;;;;;;;;;;32.10;66.20;;;;;;5072001;28;19924;-62
2022/07/20 13:09:46;;;;;;;;;;;32.20;66.30;;;;;;5071855;28;19963;-62
2022/07/20 13:12:12;;;;;;;;;;;32.00;66.10;;;;;;5076452;28;19955;-63
2022/07/20 13:14:37;;;;;;;;;;;31.70;65.80;;;;;;5065247;28;19931;-61
2022/07/20 13:17:03;;;;;;;;;;;32.00;66.40;;;;;;5058007;28;20369;-61
2022/07/20 13:19:29;;;;;;;;;;;32.10;66.50;;;;;;5072950;28;20446;-60
2022/07/20 13:21:54;;;;;;;;;;;32.10;66.90;;;;;;5059355;28;19921;-63
2022/07/20 13:24:20;;;;;;;;;;;32.30;66.80;;;;;;5057289;28;19943;-65
2022/07/20 13:26:46;;;;;;;;;;;32.00;66.30;;;;;;5070767;28;20362;-64
2022/07/20 13:29:12;;;;;;;;;;;32.10;66.20;;;;;;5081891;28;20006;-79
2022/07/20 13:31:38;;;;;;;;;;;32.10;65.90;;;;;;5095997;28;19920;-78
2022/07/20 13:34:04;;;;;;;;;;;32.00;65.50;;;;;;5096424;28;20018;-76
2022/07/20 13:36:29;;;;;;;;;;;32.00;66.20;;;;;;5096236;28;19974;-75
2022/07/20 13:38:55;;;;;;;;;;;31.90;65.40;;;;;;5096421;28;20009;-78
2022/07/20 13:41:21;;;;;;;;;;;31.80;65.10;;;;;;5062799;28;19924;-62
2022/07/20 13:43:47;;;;;;;;;;;31.80;65.20;;;;;;5087635;28;20288;-74
2022/07/20 13:46:13;;;;;;;;;;;31.90;65.40;;;;;;5095562;28;20007;-65
2022/07/20 13:48:38;;;;;;;;;;;32.10;65.30;;;;;;5068635;28;20019;-64
2022/07/20 13:51:04;;;;;;;;;;;32.00;65.20;;;;;;5090698;28;19924;-63
2022/07/20 13:53:30;;;;;;;;;;;32.00;64.90;;;;;;5096717;28;19920;-66
2022/07/20 13:55:56;;;;;;;;;;;32.00;64.80;;;;;;5096790;28;19965;-62
2022/07/20 13:58:22;;;;;;;;;;;32.10;65.30;;;;;;5095215;28;20396;-65
2022/07/20 14:00:47;;;;;;;;;;;32.00;65.10;;;;;;5096814;28;19920;-62
2022/07/20 14:03:13;;;;;;;;;;;32.00;65.80;;;;;;5076063;28;19922;-62
2022/07/20 14:05:39;;;;;;;;;;;31.90;64.90;;;;;;5076476;28;19920;-62
2022/07/20 14:08:04;;;;;;;;;;;32.10;65.00;;;;;;5079185;28;19923;-66
2022/07/20 14:10:30;;;;;;;;;;;31.90;64.50;;;;;;5095077;28;19943;-67
2022/07/20 14:12:56;;;;;;;;;;;32.20;65.10;;;;;;5096580;28;19920;-66